Terminal Aerodrome Forecast
Issued by NWS Sioux Falls, SD

Home | Current Version | Previous Version | Graphics & Text | Print | Product List | Glossary On
Versions: 1 2 3 4 5 6 7 8 9 10 11 12 13 14 15 16 17 18 19 20 21 22 23 24
000
FTUS43 KFSD 012033 AAB
TAFFSD
TAF AMD
KFSD 012033Z 0121/0218 31014G22KT P6SM OVC015
      TEMPO 0122/0124 BKN021
     FM020000 30006KT P6SM SCT035
     FM020600 16004KT P6SM OVC070
     FM021000 14006KT 2SM -SN OVC025
      TEMPO 0211/0213 1 1/2SM -SN OVC010
     FM021400 32012G18KT P6SM OVC015=

USA.gov is the U.S. government's official web portal to all federal, state and local government web resources and services.